Canada del Ucle, Argentina
Current Conditions -  °F | °C
As of 4:00 PM on Saturday 25 Oct 2014 (Local Time) from SAAR Reporting Station
Clear Clear  
Wind Chill: 88°   Ceiling: Unl
Heat Index: 88°   Visibility: 6mi
Dew Point: 63°   Wind: 10mph
Humidity: 43%   Direction: 50°NE
Pressure: 29.8"   Gusts: NA
Location:  33.41°S, 61.63°W
Report Text: SAAR 251900Z 05009KT CAVOK 31/17 Q1009
Loading
Personal Weather Stations






























Interactive Weather Map
Tropical Storm Tracking
New forecast layout! Learn more

10-Day Weather Forecast

Advertisements
Track Severe Weather on mobile